Time;durP1;ratioP1;P1;durP2;ratioP2;P2;SDS_P1;SDS_P2;PMS_P1;PMS_P2;Temp;Humidity;BMP_temperature;BMP_pressure;BME280_temperature;BME280_humidity;BME280_pressure;Samples;Min_cycle;Max_cycle;Signal;HPM_P1;HPM_P2
2021/07/22 00:01:25;;;;;;;6.60;5.95;;;22.90;60.30;;;;;;5034090;28;20167;-68
2021/07/22 00:03:51;;;;;;;6.00;5.40;;;22.80;60.20;;;;;;5034377;28;20171;-68
2021/07/22 00:06:16;;;;;;;6.22;5.50;;;22.90;60.30;;;;;;5033581;28;20202;-69
2021/07/22 00:08:42;;;;;;;6.15;5.60;;;22.80;60.30;;;;;;5034276;28;20183;-69
2021/07/22 00:11:07;;;;;;;6.55;5.88;;;22.90;60.30;;;;;;5034321;28;20534;-69
2021/07/22 00:13:33;;;;;;;6.80;6.20;;;22.80;60.30;;;;;;5033351;28;20180;-68
2021/07/22 00:15:59;;;;;;;6.18;5.47;;;22.80;60.30;;;;;;5034303;28;20265;-68
2021/07/22 00:18:25;;;;;;;7.53;6.38;;;22.80;60.30;;;;;;5033834;28;20179;-69
2021/07/22 00:20:50;;;;;;;6.95;5.88;;;22.80;60.30;;;;;;5033355;28;20703;-69
2021/07/22 00:23:16;;;;;;;6.03;5.45;;;22.80;60.30;;;;;;5034020;28;20168;-68
2021/07/22 00:25:41;;;;;;;6.55;5.95;;;22.80;60.30;;;;;;5034248;28;20177;-68
2021/07/22 00:28:07;;;;;;;6.28;5.68;;;22.90;60.40;;;;;;5033366;28;20171;-67
2021/07/22 00:30:33;;;;;;;6.50;5.90;;;22.80;60.30;;;;;;5033724;28;20182;-67
2021/07/22 00:32:58;;;;;;;5.90;5.40;;;22.80;60.40;;;;;;5033845;28;20172;-67
2021/07/22 00:35:24;;;;;;;6.80;6.15;;;22.80;60.30;;;;;;5032731;28;20270;-68
2021/07/22 00:37:50;;;;;;;6.20;5.60;;;22.80;60.40;;;;;;5034034;28;20262;-69
2021/07/22 00:40:15;;;;;;;6.70;5.53;;;22.80;60.40;;;;;;5033736;28;20186;-68
2021/07/22 00:43:00;;;;;;;6.32;5.72;;;22.80;60.40;;;;;;5033196;28;20174;-69
2021/07/22 00:45:27;;;;;;;6.63;5.88;;;22.80;60.50;;;;;;5033454;28;20186;-69
2021/07/22 00:47:53;;;;;;;6.95;6.25;;;22.80;60.50;;;;;;5033028;28;20630;-68
2021/07/22 00:50:18;;;;;;;6.18;5.57;;;22.80;60.40;;;;;;5033310;28;20227;-69
2021/07/22 00:52:44;;;;;;;6.65;5.80;;;22.80;60.40;;;;;;5033836;28;20530;-68
2021/07/22 00:55:09;;;;;;;6.10;5.60;;;22.80;61.30;;;;;;5032920;28;20200;-69
2021/07/22 00:57:38;;;;;;;6.28;5.78;;;22.80;60.50;;;;;;5033304;28;20877;-69
2021/07/22 01:00:04;;;;;;;6.28;5.68;;;22.80;60.40;;;;;;5033602;28;20171;-68
2021/07/22 01:02:30;;;;;;;6.35;5.72;;;22.80;60.50;;;;;;5032235;28;20207;-68
2021/07/22 01:04:55;;;;;;;6.68;5.97;;;22.80;60.50;;;;;;5033781;28;20202;-68
2021/07/22 01:07:20;;;;;;;6.60;6.03;;;22.70;60.40;;;;;;5033028;28;20184;-69
2021/07/22 01:09:49;;;;;;;5.95;5.45;;;22.80;60.50;;;;;;5032422;28;20585;-69
2021/07/22 01:12:14;;;;;;;6.47;5.80;;;22.70;60.40;;;;;;5016152;28;20176;-68
2021/07/22 01:14:41;;;;;;;6.57;5.97;;;22.70;60.40;;;;;;5032959;28;20164;-68
2021/07/22 01:17:07;;;;;;;5.72;5.22;;;22.70;60.40;;;;;;5031782;28;20207;-68
2021/07/22 01:19:33;;;;;;;6.20;5.60;;;22.70;60.40;;;;;;5015404;28;20226;-69
2021/07/22 01:21:58;;;;;;;6.60;6.00;;;22.80;60.50;;;;;;5033240;28;20187;-69
2021/07/22 01:24:24;;;;;;;6.55;5.85;;;22.70;60.40;;;;;;5032182;28;20172;-68
2021/07/22 01:26:49;;;;;;;6.68;6.03;;;22.70;60.40;;;;;;5033088;28;20230;-67
2021/07/22 01:29:15;;;;;;;6.20;5.60;;;22.70;60.40;;;;;;5033044;28;20175;-67
2021/07/22 01:31:40;;;;;;;6.20;5.15;;;22.70;60.40;;;;;;5032111;28;20174;-67
2021/07/22 01:34:06;;;;;;;7.20;6.28;;;22.70;60.40;;;;;;5032929;28;20171;-67
2021/07/22 01:36:31;;;;;;;6.18;5.65;;;22.70;60.40;;;;;;5032761;28;20214;-68
2021/07/22 01:39:02;;;;;;;7.10;6.40;;;22.70;60.40;;;;;;5032183;28;20180;-69
2021/07/22 01:41:27;;;;;;;6.35;5.75;;;22.70;60.40;;;;;;5032487;28;20226;-69
2021/07/22 01:43:53;;;;;;;5.43;4.97;;;22.70;60.40;;;;;;5033080;28;20171;-69
2021/07/22 01:46:21;;;;;;;6.10;5.50;;;22.70;60.50;;;;;;5031662;28;20195;-69
2021/07/22 01:48:47;;;;;;;6.47;5.88;;;22.70;60.40;;;;;;5033044;28;20195;-69
2021/07/22 01:51:12;;;;;;;7.00;6.40;;;22.70;60.40;;;;;;5032036;28;20243;-68
2021/07/22 01:53:38;;;;;;;6.03;5.47;;;22.70;60.50;;;;;;5032752;28;20237;-68
2021/07/22 01:56:04;;;;;;;7.00;6.38;;;22.70;60.50;;;;;;5032951;28;20203;-68
2021/07/22 01:58:29;;;;;;;6.90;6.20;;;22.70;60.60;;;;;;5031859;28;20172;-67
2021/07/22 02:00:55;;;;;;;6.30;5.70;;;22.70;60.50;;;;;;5033143;28;20183;-68
2021/07/22 02:03:20;;;;;;;6.28;5.78;;;22.70;60.50;;;;;;5032352;28;20555;-68
2021/07/22 02:05:45;;;;;;;7.30;6.47;;;22.70;60.50;;;;;;5032221;28;20249;-68
2021/07/22 02:08:11;;;;;;;6.72;5.95;;;22.70;60.60;;;;;;5032751;28;20167;-69
2021/07/22 02:10:36;;;;;;;6.82;6.22;;;22.70;60.60;;;;;;5032353;28;20180;-68
2021/07/22 02:13:02;;;;;;;6.53;5.93;;;22.60;60.50;;;;;;5032035;28;20693;-69
2021/07/22 02:15:27;;;;;;;6.80;6.18;;;22.70;60.70;;;;;;5032285;28;20215;-68
2021/07/22 02:17:53;;;;;;;6.28;5.68;;;22.70;60.60;;;;;;5032842;28;20176;-69
2021/07/22 02:20:18;;;;;;;5.70;5.13;;;22.60;60.60;;;;;;5033379;28;20186;-69
2021/07/22 02:22:44;;;;;;;6.65;5.95;;;22.60;60.60;;;;;;5033592;28;20172;-69
2021/07/22 02:25:10;;;;;;;6.22;5.63;;;22.60;60.60;;;;;;5034736;28;20180;-68
2021/07/22 02:27:35;;;;;;;5.97;5.38;;;22.60;60.60;;;;;;5034477;28;20178;-68
2021/07/22 02:30:06;;;;;;;6.30;5.70;;;22.60;60.60;;;;;;5038490;28;20168;-68
2021/07/22 02:32:31;;;;;;;6.88;6.25;;;22.60;60.60;;;;;;5037521;28;20180;-68
2021/07/22 02:34:57;;;;;;;7.22;6.45;;;22.60;60.70;;;;;;5035141;28;20245;-67
2021/07/22 02:37:22;;;;;;;6.90;5.63;;;22.60;60.80;;;;;;5036412;28;20176;-70
2021/07/22 02:39:48;;;;;;;6.47;5.88;;;22.60;60.80;;;;;;5036327;28;20183;-69
2021/07/22 02:42:13;;;;;;;6.78;6.15;;;22.60;60.80;;;;;;5035353;28;20179;-69
2021/07/22 02:44:39;;;;;;;6.40;5.80;;;22.60;60.70;;;;;;5035733;28;20191;-69
2021/07/22 02:47:11;;;;;;;7.97;5.57;;;22.60;60.80;;;;;;5036127;28;20203;-68
2021/07/22 02:49:37;;;;;;;6.32;5.72;;;22.60;60.80;;;;;;5034813;28;20680;-69
2021/07/22 02:52:04;;;;;;;6.10;5.50;;;22.60;60.80;;;;;;5035957;28;20638;-68
2021/07/22 02:54:30;;;;;;;6.82;6.22;;;22.60;60.80;;;;;;5034911;28;20306;-68
2021/07/22 02:56:55;;;;;;;6.05;5.50;;;22.60;60.80;;;;;;5035644;28;20294;-68
2021/07/22 02:59:21;;;;;;;6.20;5.60;;;22.60;60.80;;;;;;5035602;28;20187;-68
2021/07/22 03:01:46;;;;;;;7.18;6.47;;;22.60;60.80;;;;;;5034900;28;20923;-68
2021/07/22 03:04:12;;;;;;;5.72;5.22;;;22.60;60.90;;;;;;5035714;28;20180;-68
2021/07/22 03:06:39;;;;;;;7.13;6.43;;;22.60;60.90;;;;;;5035497;28;20191;-69
2021/07/22 03:09:05;;;;;;;6.15;5.55;;;22.60;60.90;;;;;;5034859;28;20645;-69
2021/07/22 03:11:30;;;;;;;6.68;6.07;;;22.60;60.90;;;;;;5034015;28;20192;-68
2021/07/22 03:13:58;;;;;;;7.20;6.50;;;22.60;60.90;;;;;;5035599;28;20180;-69
2021/07/22 03:16:24;;;;;;;6.30;5.70;;;22.50;60.90;;;;;;5034578;28;20219;-69
2021/07/22 03:18:49;;;;;;;6.65;6.05;;;22.60;61.00;;;;;;5035292;28;20524;-70
2021/07/22 03:21:15;;;;;;;7.00;6.22;;;22.60;61.00;;;;;;5035393;28;20180;-69
2021/07/22 03:23:40;;;;;;;6.72;6.10;;;22.60;60.90;;;;;;5034614;28;20206;-69
2021/07/22 03:26:06;;;;;;;6.68;6.07;;;22.50;60.90;;;;;;5035314;28;20711;-69
2021/07/22 03:28:31;;;;;;;6.55;5.93;;;22.60;61.00;;;;;;5034755;28;20180;-67
2021/07/22 03:30:57;;;;;;;6.70;6.00;;;22.60;61.00;;;;;;5034498;28;20643;-67
2021/07/22 03:33:22;;;;;;;6.90;6.00;;;22.50;60.90;;;;;;5034898;28;20309;-68
2021/07/22 03:35:48;;;;;;;6.63;5.90;;;22.50;60.90;;;;;;5035094;28;20218;-68
2021/07/22 03:38:13;;;;;;;6.70;6.10;;;22.60;61.10;;;;;;5033995;28;20172;-69
2021/07/22 03:40:39;;;;;;;7.28;6.18;;;22.50;60.90;;;;;;5034762;28;20649;-69
2021/07/22 03:43:04;;;;;;;5.97;5.38;;;22.50;60.90;;;;;;5034871;28;20183;-69
2021/07/22 03:45:30;;;;;;;6.70;6.10;;;22.50;60.90;;;;;;5033973;28;20179;-69
2021/07/22 03:47:59;;;;;;;7.22;6.35;;;22.50;60.90;;;;;;5034863;28;20672;-69
2021/07/22 03:50:24;;;;;;;6.57;5.80;;;22.50;60.90;;;;;;5034564;28;20242;-69
2021/07/22 03:52:56;;;;;;;6.45;5.63;;;22.50;60.90;;;;;;5034009;28;20638;-68
2021/07/22 03:55:25;;;;;;;6.13;5.60;;;22.50;61.00;;;;;;5034685;28;20204;-68
2021/07/22 03:57:50;;;;;;;7.03;5.70;;;22.50;61.00;;;;;;5035466;28;20247;-67
2021/07/22 04:00:16;;;;;;;6.43;5.82;;;22.50;61.00;;;;;;5034775;28;20211;-67
2021/07/22 04:02:41;;;;;;;6.13;5.53;;;22.50;61.00;;;;;;5034817;28;20262;-68
2021/07/22 04:05:08;;;;;;;6.88;5.90;;;22.50;61.00;;;;;;5033924;28;20180;-67
2021/07/22 04:07:33;;;;;;;6.68;6.07;;;22.50;61.00;;;;;;5034170;28;20366;-68
2021/07/22 04:09:59;;;;;;;6.35;5.78;;;22.50;61.00;;;;;;5034494;28;20676;-69
2021/07/22 04:12:24;;;;;;;6.60;6.00;;;22.50;61.00;;;;;;5033394;28;20182;-68
2021/07/22 04:14:50;;;;;;;6.75;5.88;;;22.50;61.10;;;;;;5035040;28;20184;-68
2021/07/22 04:17:15;;;;;;;7.00;6.30;;;22.50;61.00;;;;;;5034711;28;20207;-68
2021/07/22 04:19:41;;;;;;;6.15;5.55;;;22.50;61.00;;;;;;5033639;28;20183;-69
2021/07/22 04:22:07;;;;;;;7.70;6.35;;;22.50;61.00;;;;;;5034633;28;20634;-68
2021/07/22 04:24:32;;;;;;;6.90;6.05;;;22.50;61.00;;;;;;5034407;28;20168;-68
2021/07/22 04:27:01;;;;;;;6.70;6.10;;;22.50;61.90;;;;;;5033567;28;20550;-67
2021/07/22 04:29:26;;;;;;;6.72;6.07;;;22.50;61.00;;;;;;5034438;28;20183;-66
2021/07/22 04:31:52;;;;;;;7.18;6.47;;;22.50;61.00;;;;;;5033923;28;20565;-67
2021/07/22 04:34:17;;;;;;;6.28;5.63;;;22.50;61.00;;;;;;5033063;28;20258;-67
2021/07/22 04:36:42;;;;;;;5.95;5.40;;;22.50;61.00;;;;;;5033987;28;20208;-67
2021/07/22 04:39:08;;;;;;;7.25;6.55;;;22.50;61.00;;;;;;5034068;28;20199;-68
2021/07/22 04:41:36;;;;;;;7.10;6.38;;;22.50;61.00;;;;;;5033157;28;20168;-69
2021/07/22 04:44:01;;;;;;;6.78;6.10;;;22.50;61.00;;;;;;5033916;28;20172;-68
2021/07/22 04:46:27;;;;;;;6.65;6.05;;;22.50;61.00;;;;;;5033975;28;20183;-69
2021/07/22 04:48:52;;;;;;;6.40;5.80;;;22.50;61.00;;;;;;5033673;28;20179;-67
2021/07/22 04:51:18;;;;;;;6.82;6.13;;;22.60;61.10;;;;;;5032737;28;20236;-68
2021/07/22 04:53:43;;;;;;;5.85;5.35;;;22.50;61.00;;;;;;5033660;28;20174;-67
2021/07/22 04:56:09;;;;;;;7.05;6.03;;;22.50;60.90;;;;;;5033676;28;20662;-68
2021/07/22 04:58:34;;;;;;;6.45;5.85;;;22.50;61.00;;;;;;5034673;28;20172;-67
2021/07/22 05:01:02;;;;;;;7.28;6.10;;;22.50;60.90;;;;;;5035525;28;20176;-67
2021/07/22 05:03:27;;;;;;;7.25;6.53;;;22.50;60.90;;;;;;5016165;28;20172;-67
2021/07/22 05:05:53;;;;;;;6.32;5.72;;;22.60;61.00;;;;;;5033445;28;20717;-67
2021/07/22 05:08:18;;;;;;;6.07;5.57;;;22.60;61.10;;;;;;5032267;28;20188;-68
2021/07/22 05:10:43;;;;;;;5.18;4.68;;;22.50;60.90;;;;;;5033516;28;20175;-68
2021/07/22 05:13:11;;;;;;;7.00;6.30;;;22.60;61.00;;;;;;5033440;28;20168;-67
2021/07/22 05:15:39;;;;;;;6.45;5.85;;;22.60;61.00;;;;;;5032850;28;20203;-68
2021/07/22 05:18:08;;;;;;;6.65;6.05;;;22.60;61.00;;;;;;5032919;28;20171;-67
2021/07/22 05:20:33;;;;;;;7.47;6.68;;;22.60;60.90;;;;;;5032865;28;20164;-68
2021/07/22 05:23:00;;;;;;;6.60;6.00;;;22.60;61.00;;;;;;5032439;28;20183;-68
2021/07/22 05:25:26;;;;;;;7.25;6.55;;;22.60;61.30;;;;;;5032821;28;20702;-67
2021/07/22 05:27:51;;;;;;;6.88;6.22;;;22.60;61.00;;;;;;5033379;28;20180;-67
2021/07/22 05:30:17;;;;;;;6.55;5.97;;;22.60;61.00;;;;;;5032094;28;20179;-66
2021/07/22 05:32:42;;;;;;;6.32;5.72;;;22.60;61.00;;;;;;5033042;28;20271;-67
2021/07/22 05:35:08;;;;;;;7.15;6.18;;;22.60;61.00;;;;;;5032937;28;20550;-67
2021/07/22 05:37:34;;;;;;;7.85;7.05;;;22.60;61.00;;;;;;5031790;28;20188;-68
2021/07/22 05:40:00;;;;;;;6.85;6.25;;;22.60;61.00;;;;;;5033104;28;20176;-69
2021/07/22 05:42:25;;;;;;;6.00;5.50;;;22.60;61.00;;;;;;5033051;28;20176;-69
2021/07/22 05:44:51;;;;;;;6.95;6.28;;;22.60;61.00;;;;;;5032411;28;20563;-68
2021/07/22 05:47:16;;;;;;;7.05;6.45;;;22.60;61.00;;;;;;5032554;28;20218;-69
2021/07/22 05:49:42;;;;;;;6.90;6.30;;;22.60;61.00;;;;;;5032828;28;20243;-68
2021/07/22 05:52:07;;;;;;;6.70;6.10;;;22.60;61.00;;;;;;5032096;28;20168;-68
2021/07/22 05:54:33;;;;;;;6.47;5.88;;;22.60;61.00;;;;;;5032406;28;20622;-68
2021/07/22 05:57:01;;;;;;;7.15;6.47;;;22.60;61.00;;;;;;5032801;28;20219;-67
2021/07/22 05:59:26;;;;;;;7.20;6.13;;;22.60;61.00;;;;;;5031660;28;20633;-68
2021/07/22 06:01:52;;;;;;;6.75;6.15;;;22.60;61.00;;;;;;5033120;28;20238;-67
2021/07/22 06:04:17;;;;;;;6.50;6.00;;;22.60;61.80;;;;;;5036251;28;20168;-68
2021/07/22 06:06:43;;;;;;;6.80;6.10;;;22.60;61.00;;;;;;5036175;28;20222;-68
2021/07/22 06:09:09;;;;;;;6.50;5.90;;;22.60;60.90;;;;;;5036905;28;20199;-68
2021/07/22 06:11:35;;;;;;;7.72;6.85;;;22.60;61.00;;;;;;5035774;28;20194;-68
2021/07/22 06:14:00;;;;;;;6.93;6.07;;;22.60;61.00;;;;;;5036626;28;20634;-67
2021/07/22 06:16:27;;;;;;;6.78;5.63;;;22.60;61.00;;;;;;5036187;28;20210;-67
2021/07/22 06:18:53;;;;;;;6.72;6.13;;;22.60;61.00;;;;;;5035692;28;20175;-68
2021/07/22 06:21:18;;;;;;;6.38;5.85;;;22.60;61.00;;;;;;5036124;28;20180;-68
2021/07/22 06:23:44;;;;;;;5.88;5.38;;;22.60;61.00;;;;;;5036562;28;20292;-67
2021/07/22 06:26:09;;;;;;;6.85;5.75;;;22.60;60.90;;;;;;5035796;28;20176;-67
2021/07/22 06:28:38;;;;;;;6.90;6.30;;;22.60;60.90;;;;;;5036202;28;20933;-66
2021/07/22 06:31:04;;;;;;;6.35;5.75;;;22.70;61.00;;;;;;5036179;28;20538;-67
2021/07/22 06:33:29;;;;;;;5.95;5.30;;;22.70;61.00;;;;;;5035199;28;20176;-67
2021/07/22 06:35:58;;;;;;;5.55;5.03;;;22.70;60.90;;;;;;5036105;28;20212;-69
2021/07/22 06:38:25;;;;;;;6.63;6.00;;;22.70;61.00;;;;;;5035765;28;20516;-67
2021/07/22 06:40:50;;;;;;;6.45;5.95;;;22.70;61.00;;;;;;5035314;28;20633;-68
2021/07/22 06:43:16;;;;;;;6.57;5.97;;;22.70;60.90;;;;;;5035842;28;20182;-69
2021/07/22 06:45:42;;;;;;;6.63;6.05;;;22.70;60.90;;;;;;5036037;28;20172;-69
2021/07/22 06:48:07;;;;;;;6.38;5.70;;;22.70;60.90;;;;;;5035180;28;20176;-69
2021/07/22 06:50:33;;;;;;;7.20;6.57;;;22.70;60.90;;;;;;5035501;28;20224;-68
2021/07/22 06:53:01;;;;;;;6.78;6.07;;;22.70;60.90;;;;;;5036001;28;20656;-69
2021/07/22 06:55:26;;;;;;;6.45;5.85;;;22.70;60.80;;;;;;5017592;28;20207;-68
2021/07/22 06:57:51;;;;;;;6.50;5.90;;;22.80;60.90;;;;;;5035721;28;20168;-67
2021/07/22 07:00:17;;;;;;;6.30;5.70;;;22.70;60.90;;;;;;5035466;28;20638;-65
2021/07/22 07:02:42;;;;;;;6.40;5.80;;;22.80;61.00;;;;;;5034910;28;20233;-70
2021/07/22 07:05:09;;;;;;;6.32;5.75;;;22.80;61.60;;;;;;5035556;28;20186;-69
2021/07/22 07:07:35;;;;;;;5.60;5.10;;;22.80;61.10;;;;;;5035454;28;20176;-71
2021/07/22 07:10:00;;;;;;;7.50;5.68;;;22.80;61.90;;;;;;5035204;28;20176;-69
2021/07/22 07:12:26;;;;;;;6.60;6.00;;;22.80;61.00;;;;;;5035303;28;20276;-68
2021/07/22 07:14:51;;;;;;;6.20;5.60;;;22.80;61.00;;;;;;5033560;28;20591;-69
2021/07/22 07:17:17;;;;;;;6.22;5.70;;;22.90;61.10;;;;;;5034902;28;20583;-70
2021/07/22 07:19:43;;;;;;;7.25;6.05;;;22.80;61.00;;;;;;5035341;28;20669;-71
2021/07/22 07:22:08;;;;;;;6.00;5.50;;;22.90;61.10;;;;;;5034696;28;20180;-71
2021/07/22 07:24:34;;;;;;;6.75;6.15;;;22.90;61.00;;;;;;5035009;28;20690;-69
2021/07/22 07:26:59;;;;;;;6.38;5.78;;;22.90;61.10;;;;;;5035288;28;20172;-68
2021/07/22 07:29:24;;;;;;;6.55;5.95;;;22.90;61.10;;;;;;5034312;28;20175;-67
2021/07/22 07:31:50;;;;;;;6.35;5.75;;;22.90;61.10;;;;;;5035092;28;20180;-68
2021/07/22 07:34:18;;;;;;;7.07;6.40;;;22.80;61.20;;;;;;5034616;28;20511;-69
2021/07/22 07:36:44;;;;;;;6.50;5.90;;;22.80;61.30;;;;;;5034342;28;20216;-69
2021/07/22 07:39:14;;;;;;;6.78;6.18;;;22.80;61.30;;;;;;5035042;28;20309;-74
2021/07/22 07:41:39;;;;;;;7.63;6.18;;;22.90;61.60;;;;;;5034784;28;20207;-75
2021/07/22 07:44:08;;;;;;;6.63;6.05;;;22.90;61.40;;;;;;5034264;28;20266;-74
2021/07/22 07:46:33;;;;;;;6.30;5.70;;;22.90;61.40;;;;;;5034507;28;20209;-76
2021/07/22 07:48:59;;;;;;;7.30;5.97;;;22.90;61.70;;;;;;5034789;28;20252;-75
2021/07/22 07:51:24;;;;;;;7.15;6.43;;;23.00;61.50;;;;;;5033536;28;20599;-75
2021/07/22 07:53:50;;;;;;;6.10;5.60;;;23.10;61.40;;;;;;5034768;28;20180;-74
2021/07/22 07:56:16;;;;;;;6.25;5.65;;;23.10;61.40;;;;;;5016865;28;20218;-74
2021/07/22 07:58:41;;;;;;;6.90;6.20;;;23.10;61.30;;;;;;5033783;28;20182;-72
2021/07/22 08:01:07;;;;;;;6.72;6.03;;;23.10;61.60;;;;;;5032682;28;20192;-72
2021/07/22 08:03:32;;;;;;;6.97;6.05;;;23.10;61.80;;;;;;5024176;28;20171;-72
2021/07/22 08:05:58;;;;;;;6.95;6.15;;;23.10;62.00;;;;;;5023916;28;20211;-74
2021/07/22 08:08:23;;;;;;;7.00;6.40;;;23.10;62.10;;;;;;5021375;28;20630;-74
2021/07/22 08:10:49;;;;;;;6.93;6.25;;;23.00;62.20;;;;;;5023832;28;20180;-73
2021/07/22 08:13:14;;;;;;;7.82;6.30;;;23.10;62.20;;;;;;5023822;28;20635;-73
2021/07/22 08:15:43;;;;;;;6.40;5.80;;;23.10;62.20;;;;;;5023702;28;20654;-74
2021/07/22 08:18:09;;;;;;;7.63;6.82;;;23.10;62.00;;;;;;5020197;28;20709;-75
2021/07/22 08:20:35;;;;;;;6.38;5.80;;;23.20;61.90;;;;;;5022100;28;20623;-73
2021/07/22 08:23:00;;;;;;;6.40;5.80;;;23.20;61.80;;;;;;5024274;28;20176;-75
2021/07/22 08:25:26;;;;;;;6.88;6.28;;;23.30;61.70;;;;;;5022551;28;20172;-73
2021/07/22 08:28:01;;;;;;;6.82;6.22;;;23.40;61.50;;;;;;5033691;28;20182;-71
2021/07/22 08:30:26;;;;;;;6.85;6.15;;;23.40;61.50;;;;;;5033487;28;20179;-69
2021/07/22 08:32:52;;;;;;;6.63;6.03;;;23.40;61.50;;;;;;5033201;28;20184;-69
2021/07/22 08:35:17;;;;;;;6.50;5.90;;;23.30;61.60;;;;;;5033717;28;20175;-72
2021/07/22 08:37:43;;;;;;;7.22;6.53;;;23.30;61.70;;;;;;5034013;28;20187;-72
2021/07/22 08:40:10;;;;;;;7.15;6.45;;;23.20;61.80;;;;;;5033070;28;20246;-72
2021/07/22 08:42:37;;;;;;;7.32;6.47;;;23.20;61.90;;;;;;5033429;28;20180;-72
2021/07/22 08:45:03;;;;;;;7.22;6.60;;;23.20;62.00;;;;;;5015927;28;20172;-72
2021/07/22 08:47:29;;;;;;;6.82;6.22;;;23.20;62.00;;;;;;5032517;28;20250;-72
2021/07/22 08:49:54;;;;;;;6.88;6.28;;;23.20;62.00;;;;;;5033561;28;20238;-71
2021/07/22 08:52:20;;;;;;;7.50;6.70;;;23.20;62.10;;;;;;5033432;28;20178;-70
2021/07/22 08:54:45;;;;;;;7.65;6.70;;;23.10;62.00;;;;;;5033038;28;20179;-71
2021/07/22 08:57:11;;;;;;;7.32;6.65;;;23.10;62.00;;;;;;5033399;28;20207;-71
2021/07/22 08:59:36;;;;;;;7.28;6.57;;;23.10;61.90;;;;;;5031978;28;20226;-72
2021/07/22 09:02:02;;;;;;;6.97;6.28;;;23.10;62.00;;;;;;5033026;28;20206;-71
2021/07/22 09:04:28;;;;;;;7.72;6.68;;;23.20;61.80;;;;;;5031759;28;20168;-71
2021/07/22 09:06:54;;;;;;;7.78;6.97;;;23.30;61.40;;;;;;5034578;28;20176;-73
2021/07/22 09:09:20;;;;;;;7.85;7.05;;;23.40;61.30;;;;;;5037047;28;20176;-72
2021/07/22 09:12:03;;;;;;;8.57;7.10;;;23.40;61.10;;;;;;5033293;28;20581;-71
2021/07/22 09:14:30;;;;;;;11.30;7.77;;;23.50;62.20;;;;;;5032119;28;20434;-71
2021/07/22 09:16:56;;;;;;;8.18;7.05;;;23.60;61.00;;;;;;5033243;28;20469;-73
2021/07/22 09:19:37;;;;;;;10.18;7.18;;;23.70;61.00;;;;;;5033179;28;20246;-71
2021/07/22 09:22:12;;;;;;;9.98;7.32;;;23.80;60.90;;;;;;5032629;28;20206;-71
2021/07/22 09:24:51;;;;;;;9.85;7.88;;;23.90;60.90;;;;;;5032954;28;20171;-70
2021/07/22 09:27:35;;;;;;;7.70;6.93;;;23.80;61.00;;;;;;5032819;28;20638;-71
2021/07/22 09:30:01;;;;;;;7.20;6.50;;;23.70;61.10;;;;;;5032311;28;20186;-71
2021/07/22 09:32:30;;;;;;;8.43;7.05;;;23.70;61.40;;;;;;5032812;28;20175;-70
2021/07/22 09:35:09;;;;;;;8.68;6.63;;;23.70;61.60;;;;;;5032908;28;20176;-69
2021/07/22 09:37:36;;;;;;;9.43;7.13;;;23.70;61.60;;;;;;5031584;28;20192;-70
2021/07/22 09:40:01;;;;;;;8.38;6.95;;;23.60;61.50;;;;;;5033053;28;20226;-69
2021/07/22 09:42:27;;;;;;;7.82;6.97;;;23.60;61.40;;;;;;5031745;28;20179;-69
2021/07/22 09:44:52;;;;;;;8.30;7.03;;;23.60;61.60;;;;;;5015074;28;20180;-69
2021/07/22 09:47:26;;;;;;;8.45;6.97;;;23.70;60.90;;;;;;5031293;28;20179;-69
2021/07/22 09:49:52;;;;;;;8.23;7.30;;;23.70;60.90;;;;;;5032072;28;20227;-70
2021/07/22 09:52:17;;;;;;;7.82;7.07;;;23.60;60.80;;;;;;5032689;28;20187;-71
2021/07/22 09:54:42;;;;;;;8.52;7.18;;;23.60;60.60;;;;;;5032963;28;20168;-71
2021/07/22 09:57:18;;;;;;;8.65;7.75;;;23.60;60.40;;;;;;5032122;28;20203;-69
2021/07/22 09:59:45;;;;;;;7.88;7.00;;;23.60;60.30;;;;;;5032576;28;20175;-69
2021/07/22 10:02:24;;;;;;;7.97;7.18;;;23.60;60.20;;;;;;5032976;28;20301;-71
2021/07/22 10:04:57;;;;;;;8.05;7.25;;;23.60;60.10;;;;;;5032107;28;20176;-70
2021/07/22 10:07:22;;;;;;;7.45;6.72;;;23.60;60.00;;;;;;5031345;28;20168;-72
2021/07/22 10:09:50;;;;;;;7.80;7.10;;;23.60;59.90;;;;;;5031475;28;20178;-72
2021/07/22 10:12:22;;;;;;;7.47;6.78;;;23.60;59.80;;;;;;5031527;28;20274;-69
2021/07/22 10:14:53;;;;;;;8.73;7.22;;;23.60;59.70;;;;;;5032645;28;20642;-69
2021/07/22 10:17:19;;;;;;;8.05;7.25;;;23.60;59.70;;;;;;5032267;28;20704;-69
2021/07/22 10:19:45;;;;;;;8.13;6.53;;;23.60;59.60;;;;;;5030702;28;20180;-70
2021/07/22 10:22:10;;;;;;;7.63;6.40;;;23.60;59.60;;;;;;5032735;28;20172;-70
2021/07/22 10:24:36;;;;;;;7.18;6.47;;;23.60;59.60;;;;;;5031528;28;20262;-66
2021/07/22 10:27:06;;;;;;;8.38;6.72;;;23.60;59.50;;;;;;5032414;28;20168;-65
2021/07/22 10:29:33;;;;;;;7.15;6.20;;;23.70;59.40;;;;;;5032302;28;20176;-64
2021/07/22 10:31:59;;;;;;;7.10;6.40;;;23.70;59.30;;;;;;5030534;28;20657;-64
2021/07/22 10:34:31;;;;;;;7.55;6.88;;;23.70;59.20;;;;;;5023653;28;20247;-65
2021/07/22 10:36:56;;;;;;;7.25;6.55;;;23.70;59.20;;;;;;5004593;28;20556;-65
2021/07/22 10:40:06;;;;;;;6.90;6.20;;;23.70;59.00;;;;;;5004551;28;20172;-65
2021/07/22 10:42:41;;;;;;;7.35;6.65;;;23.80;58.90;;;;;;5021683;28;20203;-65
2021/07/22 10:45:18;;;;;;;7.85;6.30;;;23.80;58.80;;;;;;5021221;28;20639;-65
2021/07/22 10:47:59;;;;;;;6.85;6.15;;;23.80;58.70;;;;;;5020407;28;20168;-66
2021/07/22 10:50:37;;;;;;;7.07;6.40;;;23.80;58.60;;;;;;5024211;28;20234;-65
2021/07/22 10:53:03;;;;;;;7.30;6.28;;;23.90;58.40;;;;;;5026995;28;20192;-65
2021/07/22 10:55:57;;;;;;;7.03;6.32;;;23.90;58.30;;;;;;5035624;28;20257;-70
2021/07/22 10:58:34;;;;;;;7.38;6.68;;;24.00;58.30;;;;;;5018292;28;20183;-70
2021/07/22 11:01:04;;;;;;;8.65;6.88;;;23.90;58.10;;;;;;5035230;28;20180;-69
2021/07/22 11:03:35;;;;;;;8.35;6.68;;;24.00;58.00;;;;;;5035572;28;20180;-69
2021/07/22 11:06:01;;;;;;;7.00;6.40;;;24.00;57.90;;;;;;5035389;28;20179;-66
2021/07/22 11:08:28;;;;;;;9.75;6.22;;;24.10;57.90;;;;;;5034704;28;20175;-68
2021/07/22 11:11:03;;;;;;;7.13;6.38;;;24.10;57.90;;;;;;5035329;28;20599;-67
2021/07/22 11:13:38;;;;;;;10.82;7.07;;;24.10;57.90;;;;;;5034879;28;20262;-67
2021/07/22 11:16:11;;;;;;;8.10;6.72;;;24.20;57.90;;;;;;5034566;28;20206;-67
2021/07/22 11:18:42;;;;;;;8.65;6.50;;;24.10;57.90;;;;;;5033804;28;20255;-67
2021/07/22 11:21:07;;;;;;;7.68;5.90;;;24.10;58.00;;;;;;5034431;28;20265;-68
2021/07/22 11:23:33;;;;;;;6.78;6.05;;;24.10;58.10;;;;;;5035231;28;20191;-68
2021/07/22 11:25:58;;;;;;;7.85;6.32;;;24.10;58.20;;;;;;5035408;28;20255;-68
2021/07/22 11:28:24;;;;;;;8.27;6.25;;;24.10;58.20;;;;;;5034322;28;20203;-67
2021/07/22 11:31:04;;;;;;;8.93;6.32;;;24.10;58.20;;;;;;5035035;28;20642;-68
2021/07/22 11:33:33;;;;;;;6.72;6.00;;;24.10;58.20;;;;;;5034934;28;20192;-70
2021/07/22 11:36:01;;;;;;;9.82;6.75;;;24.10;58.20;;;;;;5034139;28;20678;-71
2021/07/22 11:38:26;;;;;;;8.63;6.65;;;24.10;58.00;;;;;;5034860;28;20245;-71
2021/07/22 11:40:53;;;;;;;7.70;6.90;;;24.10;58.00;;;;;;5035105;28;20222;-72
2021/07/22 11:43:54;;;;;;;6.90;6.22;;;24.10;57.90;;;;;;5034040;28;20255;-73
2021/07/22 11:46:42;;;;;;;7.32;6.47;;;24.10;57.70;;;;;;4992058;28;20184;-72
2021/07/22 11:49:15;;;;;;;7.88;6.80;;;24.10;57.60;;;;;;5034164;28;20179;-72
2021/07/22 11:51:48;;;;;;;7.80;7.10;;;24.10;57.50;;;;;;5034717;28;20199;-72
2021/07/22 11:54:14;;;;;;;8.77;6.43;;;24.20;57.30;;;;;;5034781;28;20176;-71
2021/07/22 11:56:40;;;;;;;7.55;6.45;;;24.30;57.10;;;;;;5033760;28;20223;-71
2021/07/22 11:59:08;;;;;;;10.88;6.57;;;24.20;57.30;;;;;;5034852;28;20172;-70
2021/07/22 12:01:34;;;;;;;6.35;5.68;;;24.20;57.30;;;;;;5033940;28;20230;-69
2021/07/22 12:04:03;;;;;;;6.93;6.22;;;24.20;57.30;;;;;;5032595;28;20187;-71
2021/07/22 12:06:29;;;;;;;6.80;6.20;;;24.20;57.20;;;;;;5033922;28;20652;-69
2021/07/22 12:09:24;;;;;;;6.65;6.05;;;24.20;57.30;;;;;;5034545;28;20175;-69
2021/07/22 12:11:52;;;;;;;6.88;6.28;;;24.10;57.30;;;;;;4999500;28;20314;-68
2021/07/22 12:14:29;;;;;;;6.60;6.00;;;24.10;57.30;;;;;;5033989;28;20547;-67
2021/07/22 12:16:54;;;;;;;6.80;6.10;;;24.00;57.30;;;;;;5034394;28;20673;-71
2021/07/22 12:19:27;;;;;;;6.95;6.18;;;24.00;57.30;;;;;;5032164;28;20183;-73
2021/07/22 12:22:27;;;;;;;7.85;5.60;;;24.00;57.30;;;;;;5034197;28;20626;-71
2021/07/22 12:24:54;;;;;;;6.60;5.90;;;24.10;57.00;;;;;;5038000;28;20186;-69
2021/07/22 12:27:29;;;;;;;6.88;6.18;;;24.20;56.70;;;;;;5033901;28;20230;-68
2021/07/22 12:29:54;;;;;;;7.25;6.18;;;24.20;56.70;;;;;;5033875;28;20179;-68
2021/07/22 12:32:20;;;;;;;8.90;6.32;;;24.20;56.60;;;;;;5032040;28;20172;-68
2021/07/22 12:34:45;;;;;;;8.55;6.57;;;24.30;56.50;;;;;;5034072;28;20175;-69
2021/07/22 12:37:11;;;;;;;6.68;6.13;;;24.30;56.90;;;;;;5016196;28;20215;-69
2021/07/22 12:39:36;;;;;;;6.55;5.85;;;24.30;56.20;;;;;;5031704;28;20527;-70
2021/07/22 12:42:12;;;;;;;7.43;6.38;;;24.40;56.10;;;;;;5033932;28;20171;-69
2021/07/22 12:44:43;;;;;;;6.40;5.85;;;24.50;55.80;;;;;;5033497;28;20649;-70
2021/07/22 12:47:28;;;;;;;6.75;5.93;;;24.50;55.90;;;;;;5033257;28;20185;-70